createdAt,value
2018-02-27T00:00:55.559Z,-5.94
2018-02-27T00:01:55.965Z,-5.87
2018-02-27T00:02:55.551Z,-5.87
2018-02-27T00:03:55.535Z,-5.94
2018-02-27T00:04:55.561Z,-5.94
2018-02-27T00:05:55.417Z,-6
2018-02-27T00:06:55.934Z,-5.94
2018-02-27T00:07:55.559Z,-5.94
2018-02-27T00:08:55.558Z,-5.87
2018-02-27T00:09:55.440Z,-5.94
2018-02-27T00:10:55.580Z,-5.87
2018-02-27T00:11:56.059Z,-5.87
2018-02-27T00:12:55.602Z,-5.87
2018-02-27T00:13:55.593Z,-5.87
2018-02-27T00:14:55.466Z,-5.87
2018-02-27T00:15:55.449Z,-5.87
2018-02-27T00:16:55.449Z,-5.81
2018-02-27T00:17:55.472Z,-5.87
2018-02-27T00:18:55.462Z,-5.87
2018-02-27T00:19:55.465Z,-6
2018-02-27T00:20:55.471Z,-5.94
2018-02-27T00:21:55.954Z,-5.94
2018-02-27T00:22:55.477Z,-5.94
2018-02-27T00:23:55.486Z,-5.94
2018-02-27T00:24:55.471Z,-5.87
2018-02-27T00:25:55.532Z,-6
2018-02-27T00:26:55.515Z,-6
2018-02-27T00:27:55.490Z,-6
2018-02-27T00:28:55.728Z,-6
2018-02-27T00:29:55.535Z,-6
2018-02-27T00:30:55.488Z,-6
2018-02-27T00:31:55.989Z,-6.06
2018-02-27T00:32:55.471Z,-6.06
2018-02-27T00:33:55.507Z,-6
2018-02-27T00:34:55.560Z,-6.06
2018-02-27T00:35:55.491Z,-6.06
2018-02-27T00:36:55.526Z,-6.12
2018-02-27T00:37:55.521Z,-6.12
2018-02-27T00:38:55.550Z,-6.06
2018-02-27T00:39:55.516Z,-6.06
2018-02-27T00:40:55.527Z,-6.12
2018-02-27T00:41:56.084Z,-6.12
2018-02-27T00:42:55.556Z,-6.06
2018-02-27T00:43:55.528Z,-6.12
2018-02-27T00:44:55.507Z,-6.06
2018-02-27T00:45:55.532Z,-6.12
2018-02-27T00:46:55.515Z,-6.12
2018-02-27T00:47:55.525Z,-6.19
2018-02-27T00:48:55.882Z,-6.25
2018-02-27T00:49:55.551Z,-6.25
2018-02-27T00:50:55.695Z,-6.19
2018-02-27T00:51:55.770Z,-6.19
2018-02-27T00:52:55.711Z,-6.19
2018-02-27T00:53:55.710Z,-6.19
2018-02-27T00:54:55.539Z,-6.19
2018-02-27T00:55:55.734Z,-6.12
2018-02-27T00:56:55.715Z,-6.12
2018-02-27T00:57:55.734Z,-6.12
2018-02-27T00:58:55.744Z,-6.19
2018-02-27T00:59:55.585Z,-6.19
2018-02-27T01:00:55.729Z,-6.19
2018-02-27T01:01:55.743Z,-6.19
2018-02-27T01:02:55.566Z,-6.19
2018-02-27T01:03:55.748Z,-6.25
2018-02-27T01:04:55.740Z,-6.25
2018-02-27T01:05:55.744Z,-6.25
2018-02-27T01:06:55.783Z,-6.31
2018-02-27T01:07:55.572Z,-6.31
2018-02-27T01:08:55.583Z,-6.37
2018-02-27T01:09:55.601Z,-6.31
2018-02-27T01:10:55.588Z,-6.37
2018-02-27T01:11:55.601Z,-6.37
2018-02-27T01:12:55.588Z,-6.37
2018-02-27T01:13:55.599Z,-6.31
2018-02-27T01:14:55.622Z,-6.37
2018-02-27T01:15:55.594Z,-6.37
2018-02-27T01:16:55.639Z,-6.37
2018-02-27T01:17:55.592Z,-6.44
2018-02-27T01:18:55.600Z,-6.44
2018-02-27T01:19:55.647Z,-6.37
2018-02-27T01:20:55.597Z,-6.44
2018-02-27T01:21:55.683Z,-6.37
2018-02-27T01:22:55.617Z,-6.44
2018-02-27T01:23:55.624Z,-6.37
2018-02-27T01:24:55.656Z,-6.37
2018-02-27T01:25:55.943Z,-6.37
2018-02-27T01:28:55.666Z,-6.37
2018-02-27T01:29:55.639Z,-6.37
2018-02-27T01:30:55.632Z,-6.44
2018-02-27T01:31:55.642Z,-6.44
2018-02-27T01:32:55.649Z,-6.5
2018-02-27T01:33:55.648Z,-6.44
2018-02-27T01:34:55.645Z,-6.5
2018-02-27T01:35:55.643Z,-6.44
2018-02-27T01:36:55.663Z,-6.44
2018-02-27T01:37:55.671Z,-6.44
2018-02-27T01:38:55.704Z,-6.44
2018-02-27T01:39:55.668Z,-6.37
2018-02-27T01:40:55.684Z,-6.37
2018-02-27T01:41:55.683Z,-6.44
2018-02-27T01:42:55.669Z,-6.37
2018-02-27T01:43:55.665Z,-6.44
2018-02-27T01:44:55.693Z,-6.44
2018-02-27T01:45:55.724Z,-6.44
2018-02-27T01:46:55.690Z,-6.5
2018-02-27T01:47:55.703Z,-6.5
2018-02-27T01:48:55.698Z,-6.5
2018-02-27T01:49:55.765Z,-6.44
2018-02-27T01:50:55.799Z,-6.44
2018-02-27T01:51:55.752Z,-6.5
2018-02-27T01:52:55.701Z,-6.5
2018-02-27T01:53:56.078Z,-6.56
2018-02-27T01:54:55.733Z,-6.56
2018-02-27T01:55:55.746Z,-6.62
2018-02-27T01:56:55.722Z,-6.56
2018-02-27T01:57:55.722Z,-6.56
2018-02-27T01:58:55.750Z,-6.56
2018-02-27T01:59:55.751Z,-6.56
2018-02-27T02:00:55.792Z,-6.56
2018-02-27T02:01:55.898Z,-6.56
2018-02-27T02:02:55.894Z,-6.56
2018-02-27T02:03:55.890Z,-6.56
2018-02-27T02:04:55.887Z,-6.62
2018-02-27T02:05:55.918Z,-6.62
2018-02-27T02:06:55.760Z,-6.62
2018-02-27T02:07:55.919Z,-6.62
2018-02-27T02:08:55.924Z,-6.69
2018-02-27T02:09:55.902Z,-6.69
2018-02-27T02:10:55.932Z,-6.62
2018-02-27T02:11:55.935Z,-6.62
2018-02-27T02:12:56.018Z,-6.62
2018-02-27T02:13:55.959Z,-6.69
2018-02-27T02:14:55.934Z,-6.62
2018-02-27T02:15:55.921Z,-6.69
2018-02-27T02:16:55.946Z,-6.69
2018-02-27T02:17:55.938Z,-6.69
2018-02-27T02:18:55.940Z,-6.75
2018-02-27T02:19:58.137Z,-6.69
2018-02-27T02:20:58.379Z,-6.69
2018-02-27T02:22:00.903Z,-6.69
2018-02-27T02:22:55.946Z,-6.69
2018-02-27T02:23:55.978Z,-6.69
2018-02-27T02:24:55.983Z,-6.75
2018-02-27T02:25:55.987Z,-6.69
2018-02-27T02:26:55.977Z,-6.69
2018-02-27T02:27:55.822Z,-6.69
2018-02-27T02:28:55.963Z,-6.75
2018-02-27T02:29:55.996Z,-6.75
2018-02-27T02:30:55.988Z,-6.75
2018-02-27T02:31:56.378Z,-6.81
2018-02-27T02:32:55.992Z,-6.75
2018-02-27T02:33:55.985Z,-6.81
2018-02-27T02:34:55.978Z,-6.81
2018-02-27T02:35:55.993Z,-6.81
2018-02-27T02:36:55.999Z,-6.87
2018-02-27T02:37:55.863Z,-6.81
2018-02-27T02:40:02.036Z,-6.81
2018-02-27T02:40:55.842Z,-6.81
2018-02-27T02:41:55.889Z,-6.81
2018-02-27T02:42:55.873Z,-6.87
2018-02-27T02:43:55.852Z,-6.81
2018-02-27T02:44:55.851Z,-6.81
2018-02-27T02:45:55.857Z,-6.81
2018-02-27T02:46:55.861Z,-6.87
2018-02-27T02:47:55.887Z,-6.87
2018-02-27T02:48:55.857Z,-6.87
2018-02-27T02:49:55.886Z,-6.87
2018-02-27T02:50:55.868Z,-6.87
2018-02-27T02:51:55.871Z,-6.81
2018-02-27T02:52:55.902Z,-6.81
2018-02-27T02:53:55.874Z,-6.81
2018-02-27T02:54:55.877Z,-6.81
2018-02-27T02:55:55.887Z,-6.87
2018-02-27T02:56:55.879Z,-6.87
2018-02-27T02:57:55.892Z,-6.87
2018-02-27T02:58:55.886Z,-6.81
2018-02-27T02:59:55.881Z,-6.87
2018-02-27T03:00:55.900Z,-6.81
2018-02-27T03:01:55.921Z,-6.81
2018-02-27T03:02:55.926Z,-6.81
2018-02-27T03:03:55.893Z,-6.81
2018-02-27T03:04:55.890Z,-6.75
2018-02-27T03:05:55.904Z,-6.81
2018-02-27T03:06:55.977Z,-6.81
2018-02-27T03:07:55.908Z,-6.81
2018-02-27T03:08:56.059Z,-6.81
2018-02-27T03:09:55.913Z,-6.94
2018-02-27T03:10:55.915Z,-6.87
2018-02-27T03:11:55.926Z,-6.87
2018-02-27T03:12:56.069Z,-6.87
2018-02-27T03:13:56.094Z,-6.87
2018-02-27T03:14:56.084Z,-6.81
2018-02-27T03:15:56.082Z,-6.81
2018-02-27T03:16:56.095Z,-6.75
2018-02-27T03:17:56.128Z,-6.75
2018-02-27T03:18:56.110Z,-6.81
2018-02-27T03:19:56.108Z,-6.75
2018-02-27T03:20:56.108Z,-6.75
2018-02-27T03:21:56.130Z,-6.75
2018-02-27T03:22:56.169Z,-6.75
2018-02-27T03:23:56.128Z,-6.75
2018-02-27T03:24:56.141Z,-6.75
2018-02-27T03:25:56.151Z,-6.75
2018-02-27T03:26:56.127Z,-6.69
2018-02-27T03:27:56.140Z,-6.75
2018-02-27T03:28:56.012Z,-6.75
2018-02-27T03:29:56.172Z,-6.75
2018-02-27T03:30:56.177Z,-6.75
2018-02-27T03:31:56.013Z,-6.69
2018-02-27T03:32:56.154Z,-6.75
2018-02-27T03:33:56.179Z,-6.75
2018-02-27T03:34:56.162Z,-6.75
2018-02-27T03:35:56.145Z,-6.81
2018-02-27T03:36:56.166Z,-6.87
2018-02-27T03:37:56.156Z,-6.87
2018-02-27T03:38:56.153Z,-6.94
2018-02-27T03:39:56.149Z,-6.94
2018-02-27T03:40:56.153Z,-7
2018-02-27T03:41:56.152Z,-6.94
2018-02-27T03:42:56.168Z,-6.94
2018-02-27T03:43:56.243Z,-6.94
2018-02-27T03:44:56.205Z,-7
2018-02-27T03:45:56.022Z,-6.94
2018-02-27T03:46:56.188Z,-7
2018-02-27T03:47:56.197Z,-6.94
2018-02-27T03:48:56.043Z,-7
2018-02-27T03:49:56.207Z,-6.94
2018-02-27T03:50:56.061Z,-7
2018-02-27T03:51:56.034Z,-7
2018-02-27T03:52:56.078Z,-7.06
2018-02-27T03:53:56.070Z,-7.06
2018-02-27T03:54:56.055Z,-7.06
2018-02-27T03:55:56.064Z,-7.12
2018-02-27T03:56:56.080Z,-7.06
2018-02-27T03:57:56.076Z,-7
2018-02-27T03:58:56.093Z,-7.06
2018-02-27T03:59:56.074Z,-7.06
2018-02-27T04:00:56.094Z,-7
2018-02-27T04:01:56.326Z,-7
2018-02-27T04:02:56.108Z,-7.06
2018-02-27T04:05:02.357Z,-7.06
2018-02-27T04:05:56.108Z,-7.06
2018-02-27T04:06:56.112Z,-7.12
2018-02-27T04:07:56.126Z,-7.12
2018-02-27T04:08:56.130Z,-7.12
2018-02-27T04:09:56.109Z,-7.06
2018-02-27T04:10:56.278Z,-7.06
2018-02-27T04:11:56.118Z,-7.12
2018-02-27T04:13:56.260Z,-7.19
2018-02-27T04:14:56.118Z,-7.19
2018-02-27T04:15:56.127Z,-7.19
2018-02-27T04:16:56.140Z,-7.19
2018-02-27T04:17:56.146Z,-7.12
2018-02-27T04:18:56.132Z,-7.12
2018-02-27T04:19:56.152Z,-7.19
2018-02-27T04:20:56.144Z,-7.19
2018-02-27T04:21:56.160Z,-7.19
2018-02-27T04:24:16.928Z,-7.19
2018-02-27T04:24:56.354Z,-7.19
2018-02-27T04:25:56.349Z,-7.19
2018-02-27T04:26:56.323Z,-7.19
2018-02-27T04:27:56.314Z,-7.19
2018-02-27T04:28:56.335Z,-7.19
2018-02-27T04:29:56.349Z,-7.25
2018-02-27T04:30:56.331Z,-7.25
2018-02-27T04:31:56.338Z,-7.25
2018-02-27T04:32:56.392Z,-7.25
2018-02-27T04:33:56.357Z,-7.31
2018-02-27T04:34:56.341Z,-7.25
2018-02-27T04:35:56.196Z,-7.25
2018-02-27T04:36:56.359Z,-7.25
2018-02-27T04:37:56.354Z,-7.25
2018-02-27T04:38:56.357Z,-7.25
2018-02-27T04:39:56.195Z,-7.19
2018-02-27T04:40:56.359Z,-7.25
2018-02-27T04:41:56.407Z,-7.19
2018-02-27T04:42:56.223Z,-7.25
2018-02-27T04:43:56.219Z,-7.25
2018-02-27T04:44:56.673Z,-7.25
2018-02-27T04:45:56.227Z,-7.25
2018-02-27T04:46:56.313Z,-7.25
2018-02-27T04:47:56.272Z,-7.25
2018-02-27T04:48:56.250Z,-7.25
2018-02-27T04:49:56.339Z,-7.19
2018-02-27T04:52:02.540Z,-7.25
2018-02-27T04:52:56.562Z,-7.25
2018-02-27T04:53:56.290Z,-7.25
2018-02-27T04:54:56.263Z,-7.25
2018-02-27T04:55:56.258Z,-7.19
2018-02-27T04:56:56.278Z,-7.19
2018-02-27T04:57:56.258Z,-7.19
2018-02-27T04:58:56.250Z,-7.12
2018-02-27T04:59:56.276Z,-7.12
2018-02-27T05:00:56.277Z,-7.12
2018-02-27T05:01:56.298Z,-7.12
2018-02-27T05:02:56.268Z,-7.12
2018-02-27T05:03:56.340Z,-7.12
2018-02-27T05:04:56.308Z,-7.12
2018-02-27T05:05:56.290Z,-7.12
2018-02-27T05:06:56.309Z,-7.12
2018-02-27T05:07:56.309Z,-7.06
2018-02-27T05:08:56.291Z,-7.06
2018-02-27T05:09:56.304Z,-7
2018-02-27T05:10:56.304Z,-7
2018-02-27T05:11:56.303Z,-6.94
2018-02-27T05:12:56.325Z,-6.94
2018-02-27T05:13:56.317Z,-6.94
2018-02-27T05:14:56.459Z,-6.87
2018-02-27T05:15:56.303Z,-6.87
2018-02-27T05:16:56.294Z,-6.81
2018-02-27T05:17:56.541Z,-6.81
2018-02-27T05:18:56.460Z,-6.81
2018-02-27T05:19:56.296Z,-6.81
2018-02-27T05:20:56.354Z,-6.75
2018-02-27T05:21:56.470Z,-6.75
2018-02-27T05:22:56.311Z,-6.69
2018-02-27T05:23:56.562Z,-6.69
2018-02-27T05:24:56.329Z,-6.69
2018-02-27T05:25:56.597Z,-6.75
2018-02-27T05:26:56.343Z,-6.75
2018-02-27T05:27:56.492Z,-6.69
2018-02-27T05:28:56.582Z,-6.69
2018-02-27T05:29:56.351Z,-6.69
2018-02-27T05:30:56.572Z,-6.62
2018-02-27T05:31:56.367Z,-6.69
2018-02-27T05:32:56.349Z,-6.69
2018-02-27T05:33:56.545Z,-6.62
2018-02-27T05:34:56.381Z,-6.62
2018-02-27T05:35:56.368Z,-6.62
2018-02-27T05:36:56.536Z,-6.69
2018-02-27T05:37:56.513Z,-6.69
2018-02-27T05:38:56.536Z,-6.62
2018-02-27T05:39:56.536Z,-6.62
2018-02-27T05:40:56.546Z,-6.62
2018-02-27T05:41:56.579Z,-6.62
2018-02-27T05:42:56.547Z,-6.62
2018-02-27T05:43:56.535Z,-6.62
2018-02-27T05:44:56.553Z,-6.62
2018-02-27T05:45:56.570Z,-6.62
2018-02-27T05:46:56.572Z,-6.62
2018-02-27T05:47:56.553Z,-6.69
2018-02-27T05:48:56.602Z,-6.69
2018-02-27T05:49:56.574Z,-6.75
2018-02-27T05:50:56.568Z,-6.69
2018-02-27T05:51:56.569Z,-6.69
2018-02-27T05:52:56.556Z,-6.75
2018-02-27T05:53:56.581Z,-6.69
2018-02-27T05:54:56.416Z,-6.75
2018-02-27T05:55:56.416Z,-6.75
2018-02-27T05:56:56.579Z,-6.81
2018-02-27T05:57:56.446Z,-6.87
2018-02-27T05:58:56.437Z,-6.87
2018-02-27T05:59:56.585Z,-6.94
2018-02-27T06:00:56.507Z,-6.94
2018-02-27T06:01:56.609Z,-6.94
2018-02-27T06:02:56.571Z,-6.94
2018-02-27T06:03:56.457Z,-7
2018-02-27T06:04:57.004Z,-7
2018-02-27T06:05:56.493Z,-7
2018-02-27T06:06:56.473Z,-7
2018-02-27T06:07:56.575Z,-7
2018-02-27T06:08:56.492Z,-7
2018-02-27T06:09:56.558Z,-6.94
2018-02-27T06:10:56.486Z,-7
2018-02-27T06:11:56.518Z,-6.94
2018-02-27T06:12:56.498Z,-7
2018-02-27T06:13:56.522Z,-6.94
2018-02-27T06:14:56.656Z,-6.94
2018-02-27T06:15:56.536Z,-6.94
2018-02-27T06:16:56.533Z,-6.94
2018-02-27T06:17:56.519Z,-6.87
2018-02-27T06:18:56.526Z,-6.94
2018-02-27T06:19:56.511Z,-6.94
2018-02-27T06:20:56.537Z,-6.87
2018-02-27T06:21:56.536Z,-6.94
2018-02-27T06:22:56.501Z,-6.87
2018-02-27T06:23:56.554Z,-7
2018-02-27T06:24:56.521Z,-7
2018-02-27T06:25:56.519Z,-7.06
2018-02-27T06:26:56.722Z,-7
2018-02-27T06:27:56.687Z,-7.12
2018-02-27T06:28:56.694Z,-7.25
2018-02-27T06:29:56.584Z,-7.25
2018-02-27T06:30:56.716Z,-7.25
2018-02-27T06:31:56.736Z,-7.25
2018-02-27T06:32:56.589Z,-7.25
2018-02-27T06:33:56.562Z,-7.31
2018-02-27T06:34:56.565Z,-7.25
2018-02-27T06:35:56.548Z,-7.31
2018-02-27T06:36:56.555Z,-7.25
2018-02-27T06:37:56.623Z,-7.31
2018-02-27T06:38:56.582Z,-7.19
2018-02-27T06:39:56.575Z,-7.25
2018-02-27T06:40:56.572Z,-7.19
2018-02-27T06:41:56.746Z,-7.25
2018-02-27T06:42:56.605Z,-7.12
2018-02-27T06:43:56.586Z,-7.19
2018-02-27T06:44:56.584Z,-7.19
2018-02-27T06:45:56.586Z,-7.12
2018-02-27T06:46:56.597Z,-7.12
2018-02-27T06:47:56.761Z,-7.12
2018-02-27T06:48:56.770Z,-7.12
2018-02-27T06:49:56.768Z,-7.06
2018-02-27T06:50:56.779Z,-7.12
2018-02-27T06:51:56.600Z,-7.12
2018-02-27T06:52:56.784Z,-7.19
2018-02-27T06:53:56.789Z,-7.12
2018-02-27T06:54:56.785Z,-7.19
2018-02-27T06:55:56.839Z,-7.19
2018-02-27T06:56:56.824Z,-7.19
2018-02-27T06:57:56.808Z,-7.19
2018-02-27T06:58:56.831Z,-7.12
2018-02-27T06:59:56.821Z,-7.06
2018-02-27T07:00:56.828Z,-7.12
2018-02-27T07:01:56.814Z,-7.06
2018-02-27T07:02:56.837Z,-7.06
2018-02-27T07:03:56.818Z,-7
2018-02-27T07:04:56.883Z,-7.06
2018-02-27T07:05:56.674Z,-7.06
2018-02-27T07:06:56.740Z,-7.06
2018-02-27T07:07:56.694Z,-7
2018-02-27T07:08:56.682Z,-7.06
2018-02-27T07:09:56.832Z,-7
2018-02-27T07:10:56.687Z,-7.06
2018-02-27T07:11:56.675Z,-7
2018-02-27T07:12:56.853Z,-7
2018-02-27T07:13:56.847Z,-7
2018-02-27T07:14:56.844Z,-7
2018-02-27T07:15:56.705Z,-6.94
2018-02-27T07:16:56.714Z,-6.94
2018-02-27T07:17:56.727Z,-6.94
2018-02-27T07:18:57.026Z,-6.94
2018-02-27T07:19:56.870Z,-6.94
2018-02-27T07:20:56.877Z,-6.94
2018-02-27T07:21:56.884Z,-6.94
2018-02-27T07:22:56.880Z,-6.94
2018-02-27T07:23:56.721Z,-7.06
2018-02-27T07:24:56.729Z,-7.19
2018-02-27T07:25:56.762Z,-7.12
2018-02-27T07:26:56.880Z,-7.12
2018-02-27T07:27:56.950Z,-7.12
2018-02-27T07:28:56.922Z,-7.12
2018-02-27T07:29:56.761Z,-7.12
2018-02-27T07:30:56.763Z,-7.25
2018-02-27T07:31:56.748Z,-7.25
2018-02-27T07:32:56.744Z,-7.25
2018-02-27T07:33:56.928Z,-7.31
2018-02-27T07:34:56.966Z,-7.31
2018-02-27T07:35:56.902Z,-7.25
2018-02-27T07:36:56.764Z,-7.25
2018-02-27T07:37:56.766Z,-7.25
2018-02-27T07:38:56.787Z,-7.19
2018-02-27T07:39:56.866Z,-7.31
2018-02-27T07:40:56.802Z,-7.25
2018-02-27T07:41:56.809Z,-7.19
2018-02-27T07:42:56.780Z,-7.19
2018-02-27T07:43:56.784Z,-7.19
2018-02-27T07:44:56.846Z,-7.06
2018-02-27T07:45:56.788Z,-7.06
2018-02-27T07:46:56.996Z,-7
2018-02-27T07:47:56.954Z,-7
2018-02-27T07:48:56.808Z,-7
2018-02-27T07:49:56.791Z,-7.19
2018-02-27T07:50:56.799Z,-7.19
2018-02-27T07:51:56.825Z,-7.19
2018-02-27T07:52:56.955Z,-7.19
2018-02-27T07:53:56.837Z,-7.12
2018-02-27T07:54:56.827Z,-7.12
2018-02-27T07:55:57.260Z,-7.06
2018-02-27T07:56:56.850Z,-6.94
2018-02-27T07:57:56.828Z,-7
2018-02-27T07:58:56.831Z,-6.94
2018-02-27T07:59:56.999Z,-6.94
2018-02-27T08:00:57.016Z,-7
2018-02-27T08:01:56.989Z,-7
2018-02-27T08:02:56.993Z,-7
2018-02-27T08:03:57.223Z,-7
2018-02-27T08:04:57.008Z,-6.94
2018-02-27T08:05:57.056Z,-6.87
2018-02-27T08:06:56.858Z,-6.81
2018-02-27T08:07:57.027Z,-6.75
2018-02-27T08:08:57.010Z,-6.69
2018-02-27T08:09:57.031Z,-6.69
2018-02-27T08:10:57.018Z,-6.62
2018-02-27T08:11:56.868Z,-6.62
2018-02-27T08:12:57.017Z,-6.81
2018-02-27T08:13:57.060Z,-6.87
2018-02-27T08:14:57.046Z,-6.94
2018-02-27T08:15:57.434Z,-6.94
2018-02-27T08:16:57.048Z,-7
2018-02-27T08:17:57.052Z,-7.12
2018-02-27T08:18:56.900Z,-7.12
2018-02-27T08:19:57.036Z,-7.12
2018-02-27T08:20:56.938Z,-7.12
2018-02-27T08:21:57.265Z,-7.12
2018-02-27T08:22:57.095Z,-7.12
2018-02-27T08:23:57.048Z,-7.06
2018-02-27T08:24:57.045Z,-7.06
2018-02-27T08:25:57.084Z,-7.06
2018-02-27T08:26:57.055Z,-7.06
2018-02-27T08:27:57.045Z,-7.06
2018-02-27T08:28:57.080Z,-7.06
2018-02-27T08:29:57.112Z,-7.06
2018-02-27T08:30:57.098Z,-7
2018-02-27T08:31:57.112Z,-6.94
2018-02-27T08:32:56.917Z,-6.87
2018-02-27T08:33:57.063Z,-6.94
2018-02-27T08:34:56.915Z,-6.87
2018-02-27T08:35:56.911Z,-6.81
2018-02-27T08:36:56.994Z,-6.81
2018-02-27T08:37:56.943Z,-6.81
2018-02-27T08:38:56.920Z,-6.81
2018-02-27T08:39:56.939Z,-6.81
2018-02-27T08:40:56.949Z,-6.75
2018-02-27T08:41:57.146Z,-6.69
2018-02-27T08:42:57.105Z,-6.62
2018-02-27T08:43:57.116Z,-6.62
2018-02-27T08:44:56.992Z,-6.56
2018-02-27T08:45:56.958Z,-6.5
2018-02-27T08:46:56.970Z,-6.44
2018-02-27T08:47:56.939Z,-6.37
2018-02-27T08:48:56.989Z,-6.25
2018-02-27T08:49:57.024Z,-6.19
2018-02-27T08:50:57.342Z,-6.12
2018-02-27T08:51:56.973Z,-6.12
2018-02-27T08:52:57.006Z,-6.12
2018-02-27T08:53:56.978Z,-6.19
2018-02-27T08:54:57.174Z,-6.12
2018-02-27T08:55:57.185Z,-6.12
2018-02-27T08:56:56.985Z,-6.06
2018-02-27T08:57:57.140Z,-6
2018-02-27T08:58:57.014Z,-5.87
2018-02-27T08:59:56.996Z,-5.87
2018-02-27T09:00:56.997Z,-5.81
2018-02-27T09:01:56.983Z,-5.81
2018-02-27T09:02:57.005Z,-5.87
2018-02-27T09:03:57.050Z,-5.81
2018-02-27T09:04:57.018Z,-5.75
2018-02-27T09:05:57.010Z,-5.69
2018-02-27T09:06:56.997Z,-5.69
2018-02-27T09:07:57.034Z,-5.75
2018-02-27T09:08:57.016Z,-5.69
2018-02-27T09:09:57.086Z,-5.62
2018-02-27T09:10:57.056Z,-5.69
2018-02-27T09:11:57.184Z,-5.75
2018-02-27T09:12:57.178Z,-5.87
2018-02-27T09:13:57.186Z,-5.81
2018-02-27T09:14:57.185Z,-5.81
2018-02-27T09:15:57.201Z,-5.87
2018-02-27T09:16:57.037Z,-5.94
2018-02-27T09:17:57.188Z,-5.87
2018-02-27T09:18:57.177Z,-5.81
2018-02-27T09:19:57.230Z,-5.81
2018-02-27T09:20:57.040Z,-5.81
2018-02-27T09:21:57.202Z,-5.69
2018-02-27T09:22:57.239Z,-5.62
2018-02-27T09:23:57.212Z,-5.69
2018-02-27T09:24:57.246Z,-5.69
2018-02-27T09:25:57.230Z,-5.69
2018-02-27T09:26:57.219Z,-5.81
2018-02-27T09:27:57.218Z,-5.81
2018-02-27T09:28:57.230Z,-5.87
2018-02-27T09:29:57.527Z,-5.87
2018-02-27T09:30:57.230Z,-5.81
2018-02-27T09:31:57.233Z,-5.87
2018-02-27T09:32:57.236Z,-5.94
2018-02-27T09:33:57.236Z,-5.75
2018-02-27T09:34:57.569Z,-5.75
2018-02-27T09:35:57.239Z,-5.69
2018-02-27T09:36:57.248Z,-5.62
2018-02-27T09:37:57.262Z,-5.56
2018-02-27T09:38:57.269Z,-5.56
2018-02-27T09:39:57.292Z,-5.5
2018-02-27T09:40:57.276Z,-5.5
2018-02-27T09:41:57.249Z,-5.44
2018-02-27T09:42:57.294Z,-5.44
2018-02-27T09:43:57.264Z,-5.31
2018-02-27T09:44:57.287Z,-5.31
2018-02-27T09:45:57.264Z,-5.31
2018-02-27T09:46:57.168Z,-5.37
2018-02-27T09:47:57.146Z,-5.37
2018-02-27T09:48:57.130Z,-5.31
2018-02-27T09:49:57.131Z,-5.44
2018-02-27T09:50:57.143Z,-5.37
2018-02-27T09:51:57.148Z,-5.31
2018-02-27T09:52:57.128Z,-5.31
2018-02-27T09:53:57.289Z,-5.25
2018-02-27T09:54:57.461Z,-5.19
2018-02-27T09:55:57.364Z,-5.06
2018-02-27T09:56:57.154Z,-5.06
2018-02-27T09:57:57.241Z,-5.12
2018-02-27T09:58:57.169Z,-5.06
2018-02-27T09:59:57.197Z,-5
2018-02-27T10:00:57.170Z,-5.06
2018-02-27T10:01:57.161Z,-5.06
2018-02-27T10:02:57.196Z,-5.06
2018-02-27T10:03:57.173Z,-5
2018-02-27T10:04:57.215Z,-5
2018-02-27T10:05:57.200Z,-5.12
2018-02-27T10:06:57.184Z,-5.19
2018-02-27T10:07:57.203Z,-5.06
2018-02-27T10:08:57.208Z,-5.12
2018-02-27T10:09:57.266Z,-5.06
2018-02-27T10:10:57.208Z,-5.06
2018-02-27T10:11:57.219Z,-5
2018-02-27T10:12:57.215Z,-4.94
2018-02-27T10:13:57.222Z,-4.81
2018-02-27T10:16:57.318Z,-4.69
2018-02-27T10:17:57.226Z,-4.62
2018-02-27T10:18:57.236Z,-4.62
2018-02-27T10:19:57.278Z,-4.56
2018-02-27T10:20:57.252Z,-4.5
2018-02-27T10:21:57.242Z,-4.5
2018-02-27T10:22:57.408Z,-4.44
2018-02-27T10:25:03.640Z,-4.94
2018-02-27T10:25:57.411Z,-5.06
2018-02-27T10:26:57.416Z,-5.12
2018-02-27T10:27:57.417Z,-5.12
2018-02-27T10:28:57.443Z,-5.06
2018-02-27T10:29:57.478Z,-4.94
2018-02-27T10:30:57.484Z,-4.87
2018-02-27T10:31:57.360Z,-4.75
2018-02-27T10:32:57.473Z,-4.69
2018-02-27T10:33:57.448Z,-4.69
2018-02-27T10:34:57.748Z,-4.69
2018-02-27T10:35:57.871Z,-4.62
2018-02-27T10:36:57.459Z,-4.56
2018-02-27T10:37:57.453Z,-4.5
2018-02-27T10:38:57.294Z,-4.44
2018-02-27T10:39:57.503Z,-4.37
2018-02-27T10:40:57.312Z,-4.37
2018-02-27T10:41:57.337Z,-4.31
2018-02-27T10:42:57.312Z,-4.25
2018-02-27T10:43:57.306Z,-4.25
2018-02-27T10:44:57.310Z,-4.31
2018-02-27T10:45:57.364Z,-4.19
2018-02-27T10:46:57.323Z,-4.19
2018-02-27T10:47:57.335Z,-4.12
2018-02-27T10:48:57.515Z,-4.19
2018-02-27T10:49:57.474Z,-4.19
2018-02-27T10:50:57.365Z,-4.12
2018-02-27T10:51:57.363Z,-4.12
2018-02-27T10:52:57.363Z,-4.06
2018-02-27T10:53:57.360Z,-4.06
2018-02-27T10:54:57.610Z,-4.06
2018-02-27T10:55:57.343Z,-3.87
2018-02-27T10:56:57.394Z,-3.94
2018-02-27T10:57:57.368Z,-3.94
2018-02-27T10:58:57.385Z,-3.87
2018-02-27T10:59:57.418Z,-4.25
2018-02-27T11:00:57.352Z,-4.25
2018-02-27T11:01:57.514Z,-4.19
2018-02-27T11:02:57.363Z,-4.12
2018-02-27T11:03:57.376Z,-4
2018-02-27T11:04:57.387Z,-3.94
2018-02-27T11:05:57.373Z,-3.87
2018-02-27T11:06:57.378Z,-3.94
2018-02-27T11:07:57.404Z,-4
2018-02-27T11:08:57.369Z,-3.87
2018-02-27T11:11:03.624Z,-3.87
2018-02-27T11:11:57.411Z,-3.81
2018-02-27T11:12:57.457Z,-3.94
2018-02-27T11:13:58.340Z,-3.87
2018-02-27T11:14:57.461Z,-3.94
2018-02-27T11:15:58.024Z,-3.94
2018-02-27T11:16:57.578Z,-3.87
2018-02-27T11:17:57.397Z,-3.75
2018-02-27T11:18:57.431Z,-3.69
2018-02-27T11:19:57.736Z,-3.69
2018-02-27T11:20:57.437Z,-3.62
2018-02-27T11:21:57.473Z,-3.62
2018-02-27T11:22:57.437Z,-3.69
2018-02-27T11:23:57.464Z,-3.69
2018-02-27T11:24:57.597Z,-3.94
2018-02-27T11:25:57.455Z,-3.87
2018-02-27T11:26:57.459Z,-4
2018-02-27T11:27:57.457Z,-4.06
2018-02-27T11:28:57.472Z,-4.06
2018-02-27T11:29:57.469Z,-3.87
2018-02-27T11:30:57.479Z,-3.81
2018-02-27T11:31:57.490Z,-3.62
2018-02-27T11:32:57.512Z,-3.56
2018-02-27T11:33:57.472Z,-3.44
2018-02-27T11:34:57.492Z,-3.5
2018-02-27T11:35:57.644Z,-3.31
2018-02-27T11:36:57.656Z,-3.31
2018-02-27T11:37:57.650Z,-3.19
2018-02-27T11:38:57.777Z,-3.19
2018-02-27T11:39:57.479Z,-3.12
2018-02-27T11:40:57.649Z,-3.19
2018-02-27T11:41:57.555Z,-3.19
2018-02-27T11:42:57.662Z,-3.12
2018-02-27T11:43:57.548Z,-3.06
2018-02-27T11:44:57.657Z,-3
2018-02-27T11:45:57.663Z,-3.06
2018-02-27T11:46:57.702Z,-3.25
2018-02-27T11:47:57.683Z,-3.25
2018-02-27T11:48:57.682Z,-3.19
2018-02-27T11:49:57.688Z,-3.06
2018-02-27T11:50:57.690Z,-3
2018-02-27T11:51:57.548Z,-2.94
2018-02-27T11:52:57.539Z,-2.87
2018-02-27T11:53:57.562Z,-2.75
2018-02-27T11:54:57.572Z,-2.75
2018-02-27T11:55:57.564Z,-2.75
2018-02-27T11:56:57.548Z,-2.69
2018-02-27T11:57:57.580Z,-2.62
2018-02-27T11:58:57.571Z,-2.56
2018-02-27T11:59:57.567Z,-2.62
2018-02-27T12:00:57.562Z,-2.69
2018-02-27T12:01:57.572Z,-2.75
2018-02-27T12:02:57.576Z,-2.75
2018-02-27T12:03:57.594Z,-2.69
2018-02-27T12:04:57.590Z,-2.69
2018-02-27T12:05:57.576Z,-2.81
2018-02-27T12:06:57.582Z,-2.81
2018-02-27T12:07:57.604Z,-2.75
2018-02-27T12:08:57.578Z,-2.69
2018-02-27T12:09:57.599Z,-2.69
2018-02-27T12:10:57.597Z,-2.62
2018-02-27T12:11:57.580Z,-2.56
2018-02-27T12:12:57.591Z,-2.5
2018-02-27T12:13:57.591Z,-2.62
2018-02-27T12:14:57.606Z,-2.56
2018-02-27T12:15:57.605Z,-2.56
2018-02-27T12:16:57.613Z,-2.44
2018-02-27T12:17:57.620Z,-2.44
2018-02-27T12:18:57.618Z,-2.44
2018-02-27T12:19:57.644Z,-2.56
2018-02-27T12:20:57.652Z,-2.69
2018-02-27T12:21:57.664Z,-2.56
2018-02-27T12:22:57.697Z,-2.5
2018-02-27T12:23:57.688Z,-2.5
2018-02-27T12:24:57.684Z,-2.5
2018-02-27T12:25:57.662Z,-2.44
2018-02-27T12:26:57.679Z,-2.37
2018-02-27T12:27:57.660Z,-2.31
2018-02-27T12:28:57.699Z,-2.25
2018-02-27T12:29:57.678Z,-2.19
2018-02-27T12:30:57.693Z,-2.19
2018-02-27T12:31:57.679Z,-2.25
2018-02-27T12:32:57.653Z,-2.19
2018-02-27T12:33:57.659Z,-2.19
2018-02-27T12:34:57.662Z,-2.12
2018-02-27T12:35:57.831Z,-2.06
2018-02-27T12:36:57.685Z,-2
2018-02-27T12:37:57.655Z,-2.06
2018-02-27T12:38:57.682Z,-2
2018-02-27T12:39:57.698Z,-2.06
2018-02-27T12:40:57.685Z,-2.19
2018-02-27T12:41:58.014Z,-2.12
2018-02-27T12:42:57.676Z,-2.06
2018-02-27T12:43:57.696Z,-2.12
2018-02-27T12:44:57.706Z,-2.19
2018-02-27T12:45:57.839Z,-2.37
2018-02-27T12:46:57.853Z,-2.37
2018-02-27T12:47:57.892Z,-2.37
2018-02-27T12:48:57.848Z,-2.5
2018-02-27T12:49:57.858Z,-2.56
2018-02-27T12:50:57.707Z,-2.5
2018-02-27T12:51:57.889Z,-2.44
2018-02-27T12:52:57.762Z,-2.37
2018-02-27T12:53:57.902Z,-2.37
2018-02-27T12:54:57.867Z,-2.62
2018-02-27T12:55:57.704Z,-2.62
2018-02-27T12:56:57.774Z,-2.56
2018-02-27T12:57:57.922Z,-2.5
2018-02-27T12:58:57.896Z,-2.44
2018-02-27T12:59:57.738Z,-2.31
2018-02-27T13:00:57.886Z,-2.25
2018-02-27T13:01:57.891Z,-2.25
2018-02-27T13:02:57.751Z,-2.25
2018-02-27T13:03:57.925Z,-2.19
2018-02-27T13:04:58.269Z,-2.19
2018-02-27T13:05:57.925Z,-2.12
2018-02-27T13:06:57.744Z,-2.06
2018-02-27T13:07:57.808Z,-2
2018-02-27T13:08:57.918Z,-2.06
2018-02-27T13:09:57.932Z,-2.12
2018-02-27T13:10:57.916Z,-2.12